sensor_id;sensor_type;location;lat;lon;timestamp;P1;P2;P0
60645;PMS5003;46462;32.608;-117.032;2024-03-23T00:52:08;5;5;
60645;PMS5003;46462;32.608;-117.032;2024-03-23T00:54:39;6;6;
60645;PMS5003;46462;32.608;-117.032;2024-03-23T00:57:09;6;6;
60645;PMS5003;46462;32.608;-117.032;2024-03-23T00:59:40;5;4;
60645;PMS5003;46462;32.608;-117.032;2024-03-23T01:02:11;6;6;
60645;PMS5003;46462;32.608;-117.032;2024-03-23T01:04:41;8;8;
60645;PMS5003;46462;32.608;-117.032;2024-03-23T01:07:12;8;8;
60645;PMS5003;46462;32.608;-117.032;2024-03-23T01:09:43;4;4;
60645;PMS5003;46462;32.608;-117.032;2024-03-23T01:12:14;5;5;
60645;PMS5003;46462;32.608;-117.032;2024-03-23T01:14:44;6;6;
60645;PMS5003;46462;32.608;-117.032;2024-03-23T01:17:15;5;5;
60645;PMS5003;46462;32.608;-117.032;2024-03-23T01:19:46;7;7;
60645;PMS5003;46462;32.608;-117.032;2024-03-23T01:22:16;7;7;
60645;PMS5003;46462;32.608;-117.032;2024-03-23T01:24:47;7;6;
60645;PMS5003;46462;32.608;-117.032;2024-03-23T01:27:18;6;6;
60645;PMS5003;46462;32.608;-117.032;2024-03-23T01:29:48;7;7;
60645;PMS5003;46462;32.608;-117.032;2024-03-23T01:32:19;6;6;
60645;PMS5003;46462;32.608;-117.032;2024-03-23T01:34:50;5;5;
60645;PMS5003;46462;32.608;-117.032;2024-03-23T01:37:20;8;7;
60645;PMS5003;46462;32.608;-117.032;2024-03-23T01:39:51;6;6;
60645;PMS5003;46462;32.608;-117.032;2024-03-23T01:42:22;6;6;
60645;PMS5003;46462;32.608;-117.032;2024-03-23T01:44:52;8;8;
60645;PMS5003;46462;32.608;-117.032;2024-03-23T01:47:23;5;5;
60645;PMS5003;46462;32.608;-117.032;2024-03-23T01:49:54;6;6;
60645;PMS5003;46462;32.608;-117.032;2024-03-23T01:52:25;7;7;
60645;PMS5003;46462;32.608;-117.032;2024-03-23T01:54:55;5;5;
60645;PMS5003;46462;32.608;-117.032;2024-03-23T01:57:26;7;7;
60645;PMS5003;46462;32.608;-117.032;2024-03-23T01:59:57;5;5;
60645;PMS5003;46462;32.608;-117.032;2024-03-23T02:02:28;6;5;
60645;PMS5003;46462;32.608;-117.032;2024-03-23T02:04:58;8;6;
60645;PMS5003;46462;32.608;-117.032;2024-03-23T02:07:29;6;6;
60645;PMS5003;46462;32.608;-117.032;2024-03-23T02:09:59;6;6;
60645;PMS5003;46462;32.608;-117.032;2024-03-23T02:12:30;5;5;
60645;PMS5003;46462;32.608;-117.032;2024-03-23T02:15:01;6;6;
60645;PMS5003;46462;32.608;-117.032;2024-03-23T02:17:33;6;5;
60645;PMS5003;46462;32.608;-117.032;2024-03-23T02:20:06;5;5;
60645;PMS5003;46462;32.608;-117.032;2024-03-23T02:22:36;6;6;
60645;PMS5003;46462;32.608;-117.032;2024-03-23T02:25:06;6;6;
60645;PMS5003;46462;32.608;-117.032;2024-03-23T02:27:36;5;5;
60645;PMS5003;46462;32.608;-117.032;2024-03-23T02:30:07;5;5;
60645;PMS5003;46462;32.608;-117.032;2024-03-23T02:32:37;6;6;
60645;PMS5003;46462;32.608;-117.032;2024-03-23T02:35:07;6;6;
60645;PMS5003;46462;32.608;-117.032;2024-03-23T02:37:38;7;7;
60645;PMS5003;46462;32.608;-117.032;2024-03-23T02:40:09;6;6;
60645;PMS5003;46462;32.608;-117.032;2024-03-23T02:42:40;4;4;
60645;PMS5003;46462;32.608;-117.032;2024-03-23T02:45:10;7;7;
60645;PMS5003;46462;32.608;-117.032;2024-03-23T02:47:41;7;6;
60645;PMS5003;46462;32.608;-117.032;2024-03-23T02:50:12;8;8;
60645;PMS5003;46462;32.608;-117.032;2024-03-23T02:52:42;8;8;
60645;PMS5003;46462;32.608;-117.032;2024-03-23T02:55:13;6;6;
60645;PMS5003;46462;32.608;-117.032;2024-03-23T02:57:44;6;6;
60645;PMS5003;46462;32.608;-117.032;2024-03-23T03:00:15;5;5;
60645;PMS5003;46462;32.608;-117.032;2024-03-23T03:02:45;5;5;
60645;PMS5003;46462;32.608;-117.032;2024-03-23T03:05:16;5;5;
60645;PMS5003;46462;32.608;-117.032;2024-03-23T03:07:47;8;8;
60645;PMS5003;46462;32.608;-117.032;2024-03-23T03:10:17;6;6;
60645;PMS5003;46462;32.608;-117.032;2024-03-23T03:12:48;6;6;
60645;PMS5003;46462;32.608;-117.032;2024-03-23T03:15:19;6;6;
60645;PMS5003;46462;32.608;-117.032;2024-03-23T03:17:50;5;5;
60645;PMS5003;46462;32.608;-117.032;2024-03-23T03:20:20;8;8;
60645;PMS5003;46462;32.608;-117.032;2024-03-23T03:22:51;5;5;
60645;PMS5003;46462;32.608;-117.032;2024-03-23T03:25:21;6;6;
60645;PMS5003;46462;32.608;-117.032;2024-03-23T03:27:52;8;8;
60645;PMS5003;46462;32.608;-117.032;2024-03-23T03:30:23;5;5;
60645;PMS5003;46462;32.608;-117.032;2024-03-23T03:32:54;5;4;
60645;PMS5003;46462;32.608;-117.032;2024-03-23T03:35:24;6;6;
60645;PMS5003;46462;32.608;-117.032;2024-03-23T03:37:55;6;6;
60645;PMS5003;46462;32.608;-117.032;2024-03-23T03:40:26;6;6;
60645;PMS5003;46462;32.608;-117.032;2024-03-23T03:42:56;5;5;
60645;PMS5003;46462;32.608;-117.032;2024-03-23T03:45:27;6;5;
60645;PMS5003;46462;32.608;-117.032;2024-03-23T03:47:58;4;4;
60645;PMS5003;46462;32.608;-117.032;2024-03-23T03:50:29;6;6;
60645;PMS5003;46462;32.608;-117.032;2024-03-23T03:52:59;5;5;
60645;PMS5003;46462;32.608;-117.032;2024-03-23T03:55:30;6;6;
60645;PMS5003;46462;32.608;-117.032;2024-03-23T03:58:01;7;7;
60645;PMS5003;46462;32.608;-117.032;2024-03-23T04:00:31;7;6;
60645;PMS5003;46462;32.608;-117.032;2024-03-23T04:03:02;5;5;
60645;PMS5003;46462;32.608;-117.032;2024-03-23T04:05:33;6;6;
60645;PMS5003;46462;32.608;-117.032;2024-03-23T04:08:04;6;6;
60645;PMS5003;46462;32.608;-117.032;2024-03-23T04:10:34;6;5;
60645;PMS5003;46462;32.608;-117.032;2024-03-23T04:13:05;7;7;
60645;PMS5003;46462;32.608;-117.032;2024-03-23T04:15:36;7;7;
60645;PMS5003;46462;32.608;-117.032;2024-03-23T04:18:06;5;5;
60645;PMS5003;46462;32.608;-117.032;2024-03-23T04:20:37;6;6;
60645;PMS5003;46462;32.608;-117.032;2024-03-23T04:23:08;6;6;
60645;PMS5003;46462;32.608;-117.032;2024-03-23T04:25:39;5;5;
60645;PMS5003;46462;32.608;-117.032;2024-03-23T04:28:09;6;6;
60645;PMS5003;46462;32.608;-117.032;2024-03-23T04:30:40;5;5;
60645;PMS5003;46462;32.608;-117.032;2024-03-23T04:33:11;7;6;
60645;PMS5003;46462;32.608;-117.032;2024-03-23T04:35:41;6;6;
60645;PMS5003;46462;32.608;-117.032;2024-03-23T04:38:12;6;6;
60645;PMS5003;46462;32.608;-117.032;2024-03-23T04:40:43;7;6;
60645;PMS5003;46462;32.608;-117.032;2024-03-23T04:43:14;7;7;
60645;PMS5003;46462;32.608;-117.032;2024-03-23T04:45:45;5;5;
60645;PMS5003;46462;32.608;-117.032;2024-03-23T04:48:15;7;7;
60645;PMS5003;46462;32.608;-117.032;2024-03-23T04:50:46;7;7;
60645;PMS5003;46462;32.608;-117.032;2024-03-23T04:53:17;6;5;
60645;PMS5003;46462;32.608;-117.032;2024-03-23T04:55:47;7;7;
60645;PMS5003;46462;32.608;-117.032;2024-03-23T04:58:18;7;7;
60645;PMS5003;46462;32.608;-117.032;2024-03-23T05:00:53;5;5;
60645;PMS5003;46462;32.608;-117.032;2024-03-23T05:03:19;7;7;
60645;PMS5003;46462;32.608;-117.032;2024-03-23T05:05:50;6;6;
60645;PMS5003;46462;32.608;-117.032;2024-03-23T05:08:21;5;5;
60645;PMS5003;46462;32.608;-117.032;2024-03-23T05:10:52;5;5;
60645;PMS5003;46462;32.608;-117.032;2024-03-23T05:13:22;5;5;
60645;PMS5003;46462;32.608;-117.032;2024-03-23T05:15:54;5;5;
60645;PMS5003;46462;32.608;-117.032;2024-03-23T05:18:24;8;7;
60645;PMS5003;46462;32.608;-117.032;2024-03-23T05:20:56;8;7;
60645;PMS5003;46462;32.608;-117.032;2024-03-23T05:23:26;8;7;
60645;PMS5003;46462;32.608;-117.032;2024-03-23T05:25:56;7;7;
60645;PMS5003;46462;32.608;-117.032;2024-03-23T05:28:27;7;6;
60645;PMS5003;46462;32.608;-117.032;2024-03-23T05:30:58;8;7;
60645;PMS5003;46462;32.608;-117.032;2024-03-23T05:33:28;7;6;
60645;PMS5003;46462;32.608;-117.032;2024-03-23T05:36:00;7;7;
60645;PMS5003;46462;32.608;-117.032;2024-03-23T05:38:30;7;7;
60645;PMS5003;46462;32.608;-117.032;2024-03-23T05:41:00;5;5;
60645;PMS5003;46462;32.608;-117.032;2024-03-23T05:43:31;7;7;
60645;PMS5003;46462;32.608;-117.032;2024-03-23T05:46:02;7;6;
60645;PMS5003;46462;32.608;-117.032;2024-03-23T05:48:33;6;6;
60645;PMS5003;46462;32.608;-117.032;2024-03-23T05:51:04;4;4;
60645;PMS5003;46462;32.608;-117.032;2024-03-23T05:53:34;6;6;
60645;PMS5003;46462;32.608;-117.032;2024-03-23T05:56:05;6;6;
60645;PMS5003;46462;32.608;-117.032;2024-03-23T05:58:36;5;5;
60645;PMS5003;46462;32.608;-117.032;2024-03-23T06:01:06;5;5;
60645;PMS5003;46462;32.608;-117.032;2024-03-23T06:03:37;6;5;
60645;PMS5003;46462;32.608;-117.032;2024-03-23T06:06:08;9;8;
60645;PMS5003;46462;32.608;-117.032;2024-03-23T06:08:38;5;5;
60645;PMS5003;46462;32.608;-117.032;2024-03-23T06:11:09;6;6;
60645;PMS5003;46462;32.608;-117.032;2024-03-23T06:13:40;7;6;
60645;PMS5003;46462;32.608;-117.032;2024-03-23T06:16:11;7;7;
60645;PMS5003;46462;32.608;-117.032;2024-03-23T06:18:41;6;6;
60645;PMS5003;46462;32.608;-117.032;2024-03-23T06:21:13;7;7;
60645;PMS5003;46462;32.608;-117.032;2024-03-23T06:23:43;8;8;
60645;PMS5003;46462;32.608;-117.032;2024-03-23T06:26:14;8;6;
60645;PMS5003;46462;32.608;-117.032;2024-03-23T06:28:44;5;5;
60645;PMS5003;46462;32.608;-117.032;2024-03-23T06:31:15;5;5;
60645;PMS5003;46462;32.608;-117.032;2024-03-23T06:33:46;6;6;
60645;PMS5003;46462;32.608;-117.032;2024-03-23T06:36:17;7;6;
60645;PMS5003;46462;32.608;-117.032;2024-03-23T06:38:47;7;7;
60645;PMS5003;46462;32.608;-117.032;2024-03-23T06:41:18;7;7;
60645;PMS5003;46462;32.608;-117.032;2024-03-23T06:43:49;5;5;
60645;PMS5003;46462;32.608;-117.032;2024-03-23T06:46:20;6;6;
60645;PMS5003;46462;32.608;-117.032;2024-03-23T06:48:50;5;5;
60645;PMS5003;46462;32.608;-117.032;2024-03-23T06:51:21;6;5;
60645;PMS5003;46462;32.608;-117.032;2024-03-23T06:53:52;7;7;
60645;PMS5003;46462;32.608;-117.032;2024-03-23T06:56:22;5;5;
60645;PMS5003;46462;32.608;-117.032;2024-03-23T06:58:53;6;5;
60645;PMS5003;46462;32.608;-117.032;2024-03-23T07:01:24;5;5;
60645;PMS5003;46462;32.608;-117.032;2024-03-23T07:03:55;8;7;
60645;PMS5003;46462;32.608;-117.032;2024-03-23T07:06:25;7;7;
60645;PMS5003;46462;32.608;-117.032;2024-03-23T07:08:56;7;7;
60645;PMS5003;46462;32.608;-117.032;2024-03-23T07:11:27;8;7;
60645;PMS5003;46462;32.608;-117.032;2024-03-23T07:13:58;7;7;
60645;PMS5003;46462;32.608;-117.032;2024-03-23T07:16:28;6;6;
60645;PMS5003;46462;32.608;-117.032;2024-03-23T07:18:59;7;6;
60645;PMS5003;46462;32.608;-117.032;2024-03-23T07:21:30;6;6;
60645;PMS5003;46462;32.608;-117.032;2024-03-23T07:24:01;8;8;
60645;PMS5003;46462;32.608;-117.032;2024-03-23T07:26:31;7;7;
60645;PMS5003;46462;32.608;-117.032;2024-03-23T07:29:02;8;8;
60645;PMS5003;46462;32.608;-117.032;2024-03-23T07:31:33;7;7;
60645;PMS5003;46462;32.608;-117.032;2024-03-23T07:34:03;6;6;
60645;PMS5003;46462;32.608;-117.032;2024-03-23T07:36:34;7;7;
60645;PMS5003;46462;32.608;-117.032;2024-03-23T07:39:05;7;6;
60645;PMS5003;46462;32.608;-117.032;2024-03-23T07:41:36;6;6;
60645;PMS5003;46462;32.608;-117.032;2024-03-23T07:44:06;8;8;
60645;PMS5003;46462;32.608;-117.032;2024-03-23T07:46:37;7;6;
60645;PMS5003;46462;32.608;-117.032;2024-03-23T07:49:08;5;5;
60645;PMS5003;46462;32.608;-117.032;2024-03-23T07:51:39;7;6;
60645;PMS5003;46462;32.608;-117.032;2024-03-23T07:54:09;7;6;
60645;PMS5003;46462;32.608;-117.032;2024-03-23T07:56:40;6;6;
60645;PMS5003;46462;32.608;-117.032;2024-03-23T07:59:11;6;6;
60645;PMS5003;46462;32.608;-117.032;2024-03-23T08:01:41;7;6;
60645;PMS5003;46462;32.608;-117.032;2024-03-23T08:04:12;5;5;
60645;PMS5003;46462;32.608;-117.032;2024-03-23T08:06:43;6;6;
60645;PMS5003;46462;32.608;-117.032;2024-03-23T08:09:14;5;5;
60645;PMS5003;46462;32.608;-117.032;2024-03-23T08:11:44;7;7;
60645;PMS5003;46462;32.608;-117.032;2024-03-23T08:14:15;7;7;
60645;PMS5003;46462;32.608;-117.032;2024-03-23T08:16:46;8;8;
60645;PMS5003;46462;32.608;-117.032;2024-03-23T08:19:16;8;8;
60645;PMS5003;46462;32.608;-117.032;2024-03-23T08:21:47;7;7;
60645;PMS5003;46462;32.608;-117.032;2024-03-23T08:24:18;7;7;
60645;PMS5003;46462;32.608;-117.032;2024-03-23T08:26:49;7;7;
60645;PMS5003;46462;32.608;-117.032;2024-03-23T08:29:19;6;6;
60645;PMS5003;46462;32.608;-117.032;2024-03-23T08:31:50;5;5;
60645;PMS5003;46462;32.608;-117.032;2024-03-23T08:34:21;9;9;
60645;PMS5003;46462;32.608;-117.032;2024-03-23T08:36:52;6;6;
60645;PMS5003;46462;32.608;-117.032;2024-03-23T08:39:22;4;4;
60645;PMS5003;46462;32.608;-117.032;2024-03-23T08:41:53;7;7;
60645;PMS5003;46462;32.608;-117.032;2024-03-23T08:44:24;8;7;
60645;PMS5003;46462;32.608;-117.032;2024-03-23T08:46:55;6;6;
60645;PMS5003;46462;32.608;-117.032;2024-03-23T08:49:25;7;7;
60645;PMS5003;46462;32.608;-117.032;2024-03-23T08:51:56;6;6;
60645;PMS5003;46462;32.608;-117.032;2024-03-23T08:54:27;8;8;
60645;PMS5003;46462;32.608;-117.032;2024-03-23T08:56:58;7;7;
60645;PMS5003;46462;32.608;-117.032;2024-03-23T08:59:28;6;6;
60645;PMS5003;46462;32.608;-117.032;2024-03-23T09:01:59;6;6;
60645;PMS5003;46462;32.608;-117.032;2024-03-23T09:04:30;7;7;
60645;PMS5003;46462;32.608;-117.032;2024-03-23T09:07:01;5;5;
60645;PMS5003;46462;32.608;-117.032;2024-03-23T09:09:31;7;6;
60645;PMS5003;46462;32.608;-117.032;2024-03-23T09:12:02;6;6;
60645;PMS5003;46462;32.608;-117.032;2024-03-23T09:14:33;4;4;
60645;PMS5003;46462;32.608;-117.032;2024-03-23T09:17:04;6;6;
60645;PMS5003;46462;32.608;-117.032;2024-03-23T09:19:34;7;7;
60645;PMS5003;46462;32.608;-117.032;2024-03-23T09:22:05;8;7;
60645;PMS5003;46462;32.608;-117.032;2024-03-23T09:24:36;6;6;
60645;PMS5003;46462;32.608;-117.032;2024-03-23T09:27:07;6;6;
60645;PMS5003;46462;32.608;-117.032;2024-03-23T09:29:37;7;7;
60645;PMS5003;46462;32.608;-117.032;2024-03-23T09:32:08;4;4;
60645;PMS5003;46462;32.608;-117.032;2024-03-23T09:34:38;8;8;
60645;PMS5003;46462;32.608;-117.032;2024-03-23T09:37:09;7;7;
60645;PMS5003;46462;32.608;-117.032;2024-03-23T09:39:40;8;7;
60645;PMS5003;46462;32.608;-117.032;2024-03-23T09:42:11;6;6;
60645;PMS5003;46462;32.608;-117.032;2024-03-23T09:44:41;7;7;
60645;PMS5003;46462;32.608;-117.032;2024-03-23T09:47:12;11;10;
60645;PMS5003;46462;32.608;-117.032;2024-03-23T09:49:43;4;4;
60645;PMS5003;46462;32.608;-117.032;2024-03-23T09:52:14;8;8;
60645;PMS5003;46462;32.608;-117.032;2024-03-23T09:54:44;7;7;
60645;PMS5003;46462;32.608;-117.032;2024-03-23T09:57:15;8;8;
60645;PMS5003;46462;32.608;-117.032;2024-03-23T09:59:46;6;5;
60645;PMS5003;46462;32.608;-117.032;2024-03-23T10:02:17;6;6;
60645;PMS5003;46462;32.608;-117.032;2024-03-23T10:04:48;7;7;
60645;PMS5003;46462;32.608;-117.032;2024-03-23T10:07:19;7;6;
60645;PMS5003;46462;32.608;-117.032;2024-03-23T10:09:49;7;7;
60645;PMS5003;46462;32.608;-117.032;2024-03-23T10:12:20;8;7;
60645;PMS5003;46462;32.608;-117.032;2024-03-23T10:14:51;7;6;
60645;PMS5003;46462;32.608;-117.032;2024-03-23T10:17:22;6;6;
60645;PMS5003;46462;32.608;-117.032;2024-03-23T10:19:52;7;6;
60645;PMS5003;46462;32.608;-117.032;2024-03-23T10:22:23;10;9;
60645;PMS5003;46462;32.608;-117.032;2024-03-23T10:24:54;7;7;
60645;PMS5003;46462;32.608;-117.032;2024-03-23T10:27:24;8;7;
60645;PMS5003;46462;32.608;-117.032;2024-03-23T10:29:55;9;8;
60645;PMS5003;46462;32.608;-117.032;2024-03-23T10:32:26;6;6;
60645;PMS5003;46462;32.608;-117.032;2024-03-23T10:34:57;7;7;
60645;PMS5003;46462;32.608;-117.032;2024-03-23T10:37:27;7;7;
60645;PMS5003;46462;32.608;-117.032;2024-03-23T10:39:58;8;7;
60645;PMS5003;46462;32.608;-117.032;2024-03-23T10:42:29;7;7;
60645;PMS5003;46462;32.608;-117.032;2024-03-23T10:45:00;7;7;
60645;PMS5003;46462;32.608;-117.032;2024-03-23T10:47:31;6;6;
60645;PMS5003;46462;32.608;-117.032;2024-03-23T10:50:01;6;6;
60645;PMS5003;46462;32.608;-117.032;2024-03-23T10:52:32;7;6;
60645;PMS5003;46462;32.608;-117.032;2024-03-23T10:55:06;7;6;
60645;PMS5003;46462;32.608;-117.032;2024-03-23T10:57:37;7;7;
60645;PMS5003;46462;32.608;-117.032;2024-03-23T11:00:07;6;6;
60645;PMS5003;46462;32.608;-117.032;2024-03-23T11:02:37;5;5;
60645;PMS5003;46462;32.608;-117.032;2024-03-23T11:07:38;7;7;
60645;PMS5003;46462;32.608;-117.032;2024-03-23T11:12:39;7;7;
60645;PMS5003;46462;32.608;-117.032;2024-03-23T11:15:11;8;8;
60645;PMS5003;46462;32.608;-117.032;2024-03-23T11:17:41;6;6;
60645;PMS5003;46462;32.608;-117.032;2024-03-23T11:20:11;7;7;
60645;PMS5003;46462;32.608;-117.032;2024-03-23T11:22:43;7;6;
60645;PMS5003;46462;32.608;-117.032;2024-03-23T11:25:14;7;6;
60645;PMS5003;46462;32.608;-117.032;2024-03-23T11:27:44;5;5;
60645;PMS5003;46462;32.608;-117.032;2024-03-23T11:30:16;8;7;
60645;PMS5003;46462;32.608;-117.032;2024-03-23T11:32:46;9;8;
60645;PMS5003;46462;32.608;-117.032;2024-03-23T11:37:47;7;7;
60645;PMS5003;46462;32.608;-117.032;2024-03-23T11:40:18;7;7;
60645;PMS5003;46462;32.608;-117.032;2024-03-23T11:45:19;7;7;
60645;PMS5003;46462;32.608;-117.032;2024-03-23T11:50:20;6;5;
60645;PMS5003;46462;32.608;-117.032;2024-03-23T11:52:51;8;8;
60645;PMS5003;46462;32.608;-117.032;2024-03-23T11:55:22;7;6;
60645;PMS5003;46462;32.608;-117.032;2024-03-23T11:57:52;8;7;
60645;PMS5003;46462;32.608;-117.032;2024-03-23T12:00:23;8;8;
60645;PMS5003;46462;32.608;-117.032;2024-03-23T12:02:54;8;8;
60645;PMS5003;46462;32.608;-117.032;2024-03-23T12:05:25;6;6;
60645;PMS5003;46462;32.608;-117.032;2024-03-23T12:07:56;6;6;
60645;PMS5003;46462;32.608;-117.032;2024-03-23T12:10:26;8;8;
60645;PMS5003;46462;32.608;-117.032;2024-03-23T12:13:00;6;6;
60645;PMS5003;46462;32.608;-117.032;2024-03-23T12:15:28;8;8;
60645;PMS5003;46462;32.608;-117.032;2024-03-23T12:20:29;8;8;
60645;PMS5003;46462;32.608;-117.032;2024-03-23T12:25:31;7;6;
60645;PMS5003;46462;32.608;-117.032;2024-03-23T12:28:02;10;9;
60645;PMS5003;46462;32.608;-117.032;2024-03-23T12:30:33;7;7;
60645;PMS5003;46462;32.608;-117.032;2024-03-23T12:33:03;6;6;
60645;PMS5003;46462;32.608;-117.032;2024-03-23T12:35:34;6;6;
60645;PMS5003;46462;32.608;-117.032;2024-03-23T12:38:05;7;7;
60645;PMS5003;46462;32.608;-117.032;2024-03-23T12:40:35;8;7;
60645;PMS5003;46462;32.608;-117.032;2024-03-23T12:43:06;9;8;
60645;PMS5003;46462;32.608;-117.032;2024-03-23T12:45:37;9;9;
60645;PMS5003;46462;32.608;-117.032;2024-03-23T12:48:08;6;6;
60645;PMS5003;46462;32.608;-117.032;2024-03-23T12:50:39;7;6;
60645;PMS5003;46462;32.608;-117.032;2024-03-23T12:53:09;7;7;
60645;PMS5003;46462;32.608;-117.032;2024-03-23T12:55:40;8;8;
60645;PMS5003;46462;32.608;-117.032;2024-03-23T12:58:11;8;8;
60645;PMS5003;46462;32.608;-117.032;2024-03-23T13:00:42;8;8;
60645;PMS5003;46462;32.608;-117.032;2024-03-23T13:03:13;8;8;
60645;PMS5003;46462;32.608;-117.032;2024-03-23T13:05:43;10;9;
60645;PMS5003;46462;32.608;-117.032;2024-03-23T13:08:14;9;8;
60645;PMS5003;46462;32.608;-117.032;2024-03-23T13:10:45;10;9;
60645;PMS5003;46462;32.608;-117.032;2024-03-23T13:13:16;10;9;
60645;PMS5003;46462;32.608;-117.032;2024-03-23T13:15:49;9;9;
60645;PMS5003;46462;32.608;-117.032;2024-03-23T13:18:17;7;7;
60645;PMS5003;46462;32.608;-117.032;2024-03-23T13:20:48;7;7;
60645;PMS5003;46462;32.608;-117.032;2024-03-23T13:23:19;10;9;
60645;PMS5003;46462;32.608;-117.032;2024-03-23T13:25:50;9;9;
60645;PMS5003;46462;32.608;-117.032;2024-03-23T13:28:20;9;9;
60645;PMS5003;46462;32.608;-117.032;2024-03-23T13:30:51;7;7;
60645;PMS5003;46462;32.608;-117.032;2024-03-23T13:33:21;8;8;
60645;PMS5003;46462;32.608;-117.032;2024-03-23T13:35:52;10;9;
60645;PMS5003;46462;32.608;-117.032;2024-03-23T13:38:23;6;6;
60645;PMS5003;46462;32.608;-117.032;2024-03-23T13:40:54;9;8;
60645;PMS5003;46462;32.608;-117.032;2024-03-23T13:43:25;10;9;
60645;PMS5003;46462;32.608;-117.032;2024-03-23T13:45:56;8;8;
60645;PMS5003;46462;32.608;-117.032;2024-03-23T13:48:27;10;10;
60645;PMS5003;46462;32.608;-117.032;2024-03-23T13:50:57;11;11;
60645;PMS5003;46462;32.608;-117.032;2024-03-23T13:53:28;9;9;
60645;PMS5003;46462;32.608;-117.032;2024-03-23T13:55:58;9;9;
60645;PMS5003;46462;32.608;-117.032;2024-03-23T13:58:29;11;11;
60645;PMS5003;46462;32.608;-117.032;2024-03-23T14:01:00;11;11;
60645;PMS5003;46462;32.608;-117.032;2024-03-23T14:03:31;8;8;
60645;PMS5003;46462;32.608;-117.032;2024-03-23T14:06:01;9;9;
60645;PMS5003;46462;32.608;-117.032;2024-03-23T14:08:32;10;10;
60645;PMS5003;46462;32.608;-117.032;2024-03-23T14:11:03;10;10;
60645;PMS5003;46462;32.608;-117.032;2024-03-23T14:13:34;11;10;
60645;PMS5003;46462;32.608;-117.032;2024-03-23T14:16:05;7;7;
60645;PMS5003;46462;32.608;-117.032;2024-03-23T14:18:36;9;9;
60645;PMS5003;46462;32.608;-117.032;2024-03-23T14:21:06;12;11;
60645;PMS5003;46462;32.608;-117.032;2024-03-23T14:23:37;9;9;
60645;PMS5003;46462;32.608;-117.032;2024-03-23T14:26:08;10;9;
60645;PMS5003;46462;32.608;-117.032;2024-03-23T14:28:38;9;8;
60645;PMS5003;46462;32.608;-117.032;2024-03-23T14:31:09;11;11;
60645;PMS5003;46462;32.608;-117.032;2024-03-23T14:33:40;12;12;
60645;PMS5003;46462;32.608;-117.032;2024-03-23T14:36:10;11;8;
60645;PMS5003;46462;32.608;-117.032;2024-03-23T14:38:41;9;9;
60645;PMS5003;46462;32.608;-117.032;2024-03-23T14:41:12;10;10;
60645;PMS5003;46462;32.608;-117.032;2024-03-23T14:43:42;9;9;
60645;PMS5003;46462;32.608;-117.032;2024-03-23T14:46:14;10;10;
60645;PMS5003;46462;32.608;-117.032;2024-03-23T14:48:44;10;10;
60645;PMS5003;46462;32.608;-117.032;2024-03-23T14:51:15;10;10;
60645;PMS5003;46462;32.608;-117.032;2024-03-23T14:53:46;9;9;
60645;PMS5003;46462;32.608;-117.032;2024-03-23T14:56:16;10;10;
60645;PMS5003;46462;32.608;-117.032;2024-03-23T14:58:51;10;10;
60645;PMS5003;46462;32.608;-117.032;2024-03-23T15:01:18;10;9;
60645;PMS5003;46462;32.608;-117.032;2024-03-23T15:03:49;11;10;
60645;PMS5003;46462;32.608;-117.032;2024-03-23T15:06:19;11;10;
60645;PMS5003;46462;32.608;-117.032;2024-03-23T15:08:50;8;8;
60645;PMS5003;46462;32.608;-117.032;2024-03-23T15:11:21;11;11;
60645;PMS5003;46462;32.608;-117.032;2024-03-23T15:13:52;11;10;
60645;PMS5003;46462;32.608;-117.032;2024-03-23T15:16:23;9;9;
60645;PMS5003;46462;32.608;-117.032;2024-03-23T15:18:54;9;9;
60645;PMS5003;46462;32.608;-117.032;2024-03-23T15:21:24;9;8;
60645;PMS5003;46462;32.608;-117.032;2024-03-23T15:23:55;11;11;
60645;PMS5003;46462;32.608;-117.032;2024-03-23T15:26:26;9;9;
60645;PMS5003;46462;32.608;-117.032;2024-03-23T15:28:56;8;8;
60645;PMS5003;46462;32.608;-117.032;2024-03-23T15:31:27;13;12;
60645;PMS5003;46462;32.608;-117.032;2024-03-23T15:33:58;8;8;
60645;PMS5003;46462;32.608;-117.032;2024-03-23T15:36:28;12;12;
60645;PMS5003;46462;32.608;-117.032;2024-03-23T15:38:59;10;9;
60645;PMS5003;46462;32.608;-117.032;2024-03-23T15:41:30;8;8;
60645;PMS5003;46462;32.608;-117.032;2024-03-23T15:44:00;10;10;
60645;PMS5003;46462;32.608;-117.032;2024-03-23T15:46:31;12;12;
60645;PMS5003;46462;32.608;-117.032;2024-03-23T15:49:02;9;9;
60645;PMS5003;46462;32.608;-117.032;2024-03-23T15:51:33;11;10;
60645;PMS5003;46462;32.608;-117.032;2024-03-23T15:54:04;13;13;
60645;PMS5003;46462;32.608;-117.032;2024-03-23T15:56:34;10;10;
60645;PMS5003;46462;32.608;-117.032;2024-03-23T15:59:05;13;12;
60645;PMS5003;46462;32.608;-117.032;2024-03-23T16:01:35;11;11;
60645;PMS5003;46462;32.608;-117.032;2024-03-23T16:04:06;11;11;
60645;PMS5003;46462;32.608;-117.032;2024-03-23T16:06:37;11;11;
60645;PMS5003;46462;32.608;-117.032;2024-03-23T16:09:08;12;10;
60645;PMS5003;46462;32.608;-117.032;2024-03-23T16:11:39;14;13;
60645;PMS5003;46462;32.608;-117.032;2024-03-23T16:14:09;11;11;
60645;PMS5003;46462;32.608;-117.032;2024-03-23T16:16:40;11;11;
60645;PMS5003;46462;32.608;-117.032;2024-03-23T16:19:11;12;12;
60645;PMS5003;46462;32.608;-117.032;2024-03-23T16:21:41;15;15;
60645;PMS5003;46462;32.608;-117.032;2024-03-23T16:24:12;13;13;
60645;PMS5003;46462;32.608;-117.032;2024-03-23T16:26:43;12;12;
60645;PMS5003;46462;32.608;-117.032;2024-03-23T16:29:13;13;13;
60645;PMS5003;46462;32.608;-117.032;2024-03-23T16:31:44;14;14;
60645;PMS5003;46462;32.608;-117.032;2024-03-23T16:34:14;13;13;
60645;PMS5003;46462;32.608;-117.032;2024-03-23T16:36:45;13;13;
60645;PMS5003;46462;32.608;-117.032;2024-03-23T16:39:16;13;13;
60645;PMS5003;46462;32.608;-117.032;2024-03-23T16:41:46;12;12;
60645;PMS5003;46462;32.608;-117.032;2024-03-23T16:44:17;14;13;
60645;PMS5003;46462;32.608;-117.032;2024-03-23T16:46:48;14;13;
60645;PMS5003;46462;32.608;-117.032;2024-03-23T16:49:19;15;14;
60645;PMS5003;46462;32.608;-117.032;2024-03-23T16:51:49;15;13;
60645;PMS5003;46462;32.608;-117.032;2024-03-23T16:54:20;13;13;
60645;PMS5003;46462;32.608;-117.032;2024-03-23T16:56:51;14;13;
60645;PMS5003;46462;32.608;-117.032;2024-03-23T16:59:21;16;15;
60645;PMS5003;46462;32.608;-117.032;2024-03-23T17:01:52;14;13;
60645;PMS5003;46462;32.608;-117.032;2024-03-23T17:04:23;14;14;
60645;PMS5003;46462;32.608;-117.032;2024-03-23T17:06:53;14;13;
60645;PMS5003;46462;32.608;-117.032;2024-03-23T17:09:23;14;13;
60645;PMS5003;46462;32.608;-117.032;2024-03-23T17:11:54;13;12;
60645;PMS5003;46462;32.608;-117.032;2024-03-23T17:14:26;12;12;
60645;PMS5003;46462;32.608;-117.032;2024-03-23T17:16:55;12;12;
60645;PMS5003;46462;32.608;-117.032;2024-03-23T17:19:26;12;12;
60645;PMS5003;46462;32.608;-117.032;2024-03-23T17:21:57;12;12;
60645;PMS5003;46462;32.608;-117.032;2024-03-23T17:24:27;15;13;
60645;PMS5003;46462;32.608;-117.032;2024-03-23T17:26:58;14;14;